createdAt,value
2023-03-17T00:00:51.517Z,52.27
2023-03-17T00:02:55.223Z,52.27
2023-03-17T00:04:59.861Z,52.11
2023-03-17T00:07:03.246Z,52.56
2023-03-17T00:09:11.544Z,52.62
2023-03-17T00:11:17.278Z,52.40
2023-03-17T00:13:20.905Z,52.46
2023-03-17T00:15:26.740Z,52.41
2023-03-17T00:17:30.025Z,52.62
2023-03-17T00:19:36.398Z,52.58
2023-03-17T00:21:42.175Z,52.74
2023-03-17T00:23:49.955Z,52.84
2023-03-17T00:25:54.346Z,52.70
2023-03-17T00:27:59.358Z,52.89
2023-03-17T00:30:03.685Z,52.86
2023-03-17T00:32:07.779Z,52.98
2023-03-17T00:34:13.324Z,53.10
2023-03-17T00:36:19.397Z,53.16
2023-03-17T00:38:25.205Z,53.33
2023-03-17T00:40:31.235Z,53.07
2023-03-17T00:42:35.272Z,53.25
2023-03-17T00:44:38.526Z,53.32
2023-03-17T00:46:42.511Z,53.40
2023-03-17T00:48:47.460Z,53.21
2023-03-17T00:50:51.833Z,53.34
2023-03-17T00:52:57.631Z,53.27
2023-03-17T00:55:02.311Z,53.36
2023-03-17T00:57:05.827Z,53.24
2023-03-17T00:59:20.555Z,53.53
2023-03-17T01:01:23.891Z,53.40
2023-03-17T01:03:28.374Z,53.63
2023-03-17T01:05:32.072Z,53.65
2023-03-17T01:07:38.595Z,53.78
2023-03-17T01:09:43.915Z,53.91
2023-03-17T01:11:49.246Z,53.70
2023-03-17T01:13:52.696Z,54.02
2023-03-17T01:15:57.158Z,54.05
2023-03-17T01:18:02.745Z,54.21
2023-03-17T01:20:08.030Z,54.26
2023-03-17T01:22:11.540Z,54.31
2023-03-17T01:24:14.886Z,54.47
2023-03-17T01:26:18.281Z,54.37
2023-03-17T01:28:23.354Z,54.59
2023-03-17T01:30:29.712Z,54.67
2023-03-17T01:32:33.926Z,54.45
2023-03-17T01:34:37.810Z,54.79
2023-03-17T01:36:41.407Z,54.70
2023-03-17T01:38:44.725Z,54.98
2023-03-17T01:40:50.479Z,55.12
2023-03-17T01:42:55.482Z,55.33
2023-03-17T01:45:02.537Z,55.45
2023-03-17T01:47:07.187Z,55.51
2023-03-17T01:49:15.945Z,55.84
2023-03-17T01:51:25.428Z,56.10
2023-03-17T01:53:29.268Z,56.24
2023-03-17T01:55:32.617Z,56.40
2023-03-17T01:57:40.045Z,56.58
2023-03-17T01:59:47.706Z,56.41
2023-03-17T02:01:55.684Z,56.41
2023-03-17T02:04:00.233Z,56.56
2023-03-17T02:06:04.996Z,56.62
2023-03-17T02:08:13.560Z,56.63
2023-03-17T02:10:19.377Z,56.62
2023-03-17T02:12:24.718Z,56.91
2023-03-17T02:14:28.732Z,57.07
2023-03-17T02:16:32.582Z,57.15
2023-03-17T02:18:37.205Z,57.12
2023-03-17T02:21:25.235Z,57.06
2023-03-17T02:23:30.646Z,57.12
2023-03-17T02:25:35.796Z,57.32
2023-03-17T02:27:43.016Z,57.30
2023-03-17T02:29:47.369Z,57.41
2023-03-17T02:31:51.088Z,57.58
2023-03-17T02:33:54.893Z,57.32
2023-03-17T02:35:58.119Z,57.38
2023-03-17T02:38:01.810Z,57.48
2023-03-17T02:40:10.314Z,57.51
2023-03-17T02:42:14.895Z,57.61
2023-03-17T02:44:18.177Z,57.59
2023-03-17T02:46:21.582Z,57.65
2023-03-17T02:48:24.879Z,57.75
2023-03-17T02:50:30.042Z,57.83
2023-03-17T02:52:33.417Z,57.79
2023-03-17T02:54:36.831Z,57.90
2023-03-17T02:56:42.029Z,57.92
2023-03-17T02:58:45.471Z,58.00
2023-03-17T03:00:49.024Z,57.83
2023-03-17T03:02:52.838Z,57.96
2023-03-17T03:04:57.364Z,57.98
2023-03-17T03:07:00.596Z,57.78
2023-03-17T03:09:04.260Z,58.15
2023-03-17T03:11:07.801Z,58.06
2023-03-17T03:13:12.895Z,58.05
2023-03-17T03:15:16.202Z,57.91
2023-03-17T03:17:19.481Z,58.21
2023-03-17T03:19:24.367Z,58.10
2023-03-17T03:21:27.692Z,58.42
2023-03-17T03:23:30.953Z,58.20
2023-03-17T03:25:34.605Z,58.35
2023-03-17T03:27:37.829Z,58.42
2023-03-17T03:29:42.538Z,58.40
2023-03-17T03:31:48.150Z,58.09
2023-03-17T03:33:51.669Z,58.45
2023-03-17T03:35:55.286Z,58.26
2023-03-17T03:37:59.059Z,58.63
2023-03-17T03:40:02.970Z,58.54
2023-03-17T03:42:07.080Z,58.54
2023-03-17T03:44:10.547Z,58.62
2023-03-17T03:46:15.680Z,58.50
2023-03-17T03:48:19.357Z,58.62
2023-03-17T03:50:22.825Z,58.79
2023-03-17T03:52:26.254Z,58.92
2023-03-17T03:54:29.511Z,59.20
2023-03-17T03:56:32.777Z,59.22
2023-03-17T03:58:36.000Z,59.45
2023-03-17T04:00:39.313Z,59.55
2023-03-17T04:02:45.183Z,59.61
2023-03-17T04:04:49.059Z,59.77
2023-03-17T04:06:52.371Z,59.82
2023-03-17T04:08:58.162Z,59.93
2023-03-17T04:11:01.805Z,59.89
2023-03-17T04:13:05.127Z,60.05
2023-03-17T04:15:11.293Z,60.15
2023-03-17T04:17:15.631Z,60.09
2023-03-17T04:19:21.604Z,60.17
2023-03-17T04:21:24.905Z,60.40
2023-03-17T04:23:28.959Z,60.38
2023-03-17T04:25:32.655Z,60.46
2023-03-17T04:27:36.217Z,60.63
2023-03-17T04:29:39.406Z,60.76
2023-03-17T04:31:43.186Z,60.64
2023-03-17T04:33:46.515Z,60.88
2023-03-17T04:35:51.377Z,60.94
2023-03-17T04:37:54.678Z,60.91
2023-03-17T04:39:57.935Z,60.83
2023-03-17T04:42:01.457Z,60.96
2023-03-17T04:44:04.711Z,60.79
2023-03-17T04:46:08.111Z,61.01
2023-03-17T04:48:11.371Z,61.10
2023-03-17T04:50:15.918Z,61.19
2023-03-17T04:52:20.620Z,61.16
2023-03-17T04:54:23.987Z,61.26
2023-03-17T04:56:27.497Z,61.28
2023-03-17T04:58:31.402Z,61.22
2023-03-17T05:00:38.933Z,61.46
2023-03-17T05:02:42.296Z,61.37
2023-03-17T05:04:45.970Z,61.44
2023-03-17T05:06:49.197Z,61.55
2023-03-17T05:08:53.929Z,61.66
2023-03-17T05:10:58.398Z,61.58
2023-03-17T05:13:01.662Z,61.62
2023-03-17T05:15:05.684Z,61.71
2023-03-17T05:17:09.170Z,61.87
2023-03-17T05:19:12.347Z,61.79
2023-03-17T05:21:15.631Z,61.79
2023-03-17T05:23:18.873Z,62.01
2023-03-17T05:25:23.604Z,62.09
2023-03-17T05:27:27.054Z,62.20
2023-03-17T05:29:30.336Z,62.29
2023-03-17T05:31:34.294Z,62.19
2023-03-17T05:33:37.677Z,62.47
2023-03-17T05:35:40.890Z,62.40
2023-03-17T05:37:44.467Z,62.65
2023-03-17T05:39:47.910Z,62.38
2023-03-17T05:41:52.601Z,62.58
2023-03-17T05:43:56.255Z,62.41
2023-03-17T05:45:59.546Z,62.63
2023-03-17T05:48:03.327Z,62.56
2023-03-17T05:50:08.069Z,62.57
2023-03-17T05:52:11.418Z,62.66
2023-03-17T05:54:15.782Z,62.75
2023-03-17T05:56:19.012Z,62.74
2023-03-17T05:58:23.834Z,62.71
2023-03-17T06:00:29.295Z,62.68
2023-03-17T06:02:32.822Z,62.67
2023-03-17T06:04:36.314Z,62.43
2023-03-17T06:06:40.034Z,62.37
2023-03-17T06:08:43.368Z,62.43
2023-03-17T06:10:46.710Z,62.66
2023-03-17T06:12:49.999Z,62.41
2023-03-17T06:14:54.594Z,62.23
2023-03-17T06:16:58.081Z,62.43
2023-03-17T06:19:01.485Z,62.36
2023-03-17T06:21:04.954Z,62.25
2023-03-17T06:23:08.222Z,62.22
2023-03-17T06:25:12.684Z,62.37
2023-03-17T06:27:16.015Z,62.08
2023-03-17T06:29:19.771Z,62.05
2023-03-17T06:31:24.485Z,61.97
2023-03-17T06:33:28.331Z,61.84
2023-03-17T06:35:33.471Z,61.64
2023-03-17T06:37:37.322Z,61.67
2023-03-17T06:39:41.840Z,61.32
2023-03-17T06:41:45.134Z,61.66
2023-03-17T06:43:48.370Z,61.56
2023-03-17T06:45:51.761Z,61.37
2023-03-17T06:47:57.070Z,61.53
2023-03-17T06:50:00.351Z,61.37
2023-03-17T06:52:03.764Z,61.40
2023-03-17T06:54:07.853Z,61.29
2023-03-17T06:56:23.563Z,61.26
2023-03-17T06:58:32.419Z,61.31
2023-03-17T07:00:35.657Z,61.12
2023-03-17T07:02:38.910Z,61.01
2023-03-17T07:04:43.803Z,60.86
2023-03-17T07:06:47.058Z,60.77
2023-03-17T07:08:50.927Z,60.58
2023-03-17T07:10:55.928Z,60.26
2023-03-17T07:13:02.766Z,60.29
2023-03-17T07:15:06.753Z,60.21
2023-03-17T07:17:13.659Z,60.10
2023-03-17T07:19:16.971Z,59.92
2023-03-17T07:21:21.949Z,59.67
2023-03-17T07:23:26.185Z,59.58
2023-03-17T07:25:29.638Z,59.61
2023-03-17T07:27:33.162Z,59.31
2023-03-17T07:29:36.769Z,59.41
2023-03-17T07:31:40.013Z,59.21
2023-03-17T07:33:43.494Z,59.46
2023-03-17T07:35:47.334Z,59.33
2023-03-17T07:37:52.081Z,59.20
2023-03-17T07:39:55.507Z,59.27
2023-03-17T07:41:58.826Z,59.18
2023-03-17T07:44:02.437Z,58.99
2023-03-17T07:46:06.840Z,59.30
2023-03-17T07:48:10.719Z,59.04
2023-03-17T07:50:15.620Z,58.73
2023-03-17T07:52:19.106Z,58.57
2023-03-17T07:54:25.587Z,58.51
2023-03-17T07:56:29.240Z,58.28
2023-03-17T07:58:32.559Z,58.11
2023-03-17T08:00:36.211Z,57.51
2023-03-17T08:02:39.921Z,57.17
2023-03-17T08:04:43.400Z,56.41
2023-03-17T08:06:47.753Z,56.23
2023-03-17T08:08:51.018Z,56.13
2023-03-17T08:11:02.167Z,56.03
2023-03-17T08:13:05.501Z,55.78
2023-03-17T08:15:10.531Z,55.44
2023-03-17T08:17:13.859Z,55.33
2023-03-17T08:19:17.464Z,54.96
2023-03-17T08:21:21.068Z,54.89
2023-03-17T08:23:25.548Z,54.87
2023-03-17T08:25:29.645Z,54.48
2023-03-17T08:27:34.405Z,54.42
2023-03-17T08:29:37.746Z,54.30
2023-03-17T08:31:42.511Z,53.69
2023-03-17T08:33:48.854Z,53.62
2023-03-17T08:35:52.362Z,53.25
2023-03-17T08:37:56.278Z,53.14
2023-03-17T08:40:00.986Z,53.11
2023-03-17T08:42:06.121Z,53.12
2023-03-17T08:44:13.100Z,53.07
2023-03-17T08:46:18.867Z,52.77
2023-03-17T08:48:22.524Z,52.52
2023-03-17T08:50:26.204Z,52.23
2023-03-17T08:52:29.818Z,52.05
2023-03-17T08:54:35.856Z,51.84
2023-03-17T08:56:40.646Z,51.58
2023-03-17T08:58:44.384Z,51.31
2023-03-17T09:00:50.832Z,50.97
2023-03-17T09:02:54.374Z,50.91
2023-03-17T09:04:57.816Z,50.77
2023-03-17T09:07:04.066Z,50.23
2023-03-17T09:09:07.713Z,50.64
2023-03-17T09:11:15.208Z,50.17
2023-03-17T09:13:19.153Z,49.94
2023-03-17T09:15:23.331Z,49.91
2023-03-17T09:17:28.092Z,49.68
2023-03-17T09:19:31.649Z,49.69
2023-03-17T09:21:35.035Z,49.58
2023-03-17T09:23:38.382Z,49.16
2023-03-17T09:25:44.083Z,49.20
2023-03-17T09:27:54.822Z,48.89
2023-03-17T09:30:06.107Z,48.32
2023-03-17T09:32:12.112Z,48.24
2023-03-17T09:34:17.187Z,47.98
2023-03-17T09:36:20.729Z,47.89
2023-03-17T09:38:24.885Z,47.30
2023-03-17T09:40:34.043Z,47.10
2023-03-17T09:42:52.398Z,46.51
2023-03-17T09:45:07.253Z,46.31
2023-03-17T09:47:29.040Z,46.01
2023-03-17T09:49:39.511Z,46.08
2023-03-17T09:51:47.642Z,45.68
2023-03-17T09:53:56.146Z,45.58
2023-03-17T09:56:00.066Z,45.63
2023-03-17T09:58:04.734Z,45.42
2023-03-17T10:00:15.326Z,45.38
2023-03-17T10:02:24.028Z,44.86
2023-03-17T10:04:28.222Z,44.93
2023-03-17T10:06:43.595Z,44.94
2023-03-17T10:08:52.704Z,44.99
2023-03-17T10:11:00.580Z,44.64
2023-03-17T10:13:14.327Z,44.14
2023-03-17T10:15:23.959Z,44.56
2023-03-17T10:17:32.091Z,44.60
2023-03-17T10:19:41.854Z,44.66
2023-03-17T10:21:54.748Z,44.65
2023-03-17T10:23:59.417Z,44.60
2023-03-17T10:26:09.630Z,44.28
2023-03-17T10:28:25.967Z,44.17
2023-03-17T10:30:31.812Z,43.85
2023-03-17T10:32:43.118Z,44.26
2023-03-17T10:34:48.695Z,44.17
2023-03-17T10:36:56.663Z,43.66
2023-03-17T10:39:02.420Z,43.38
2023-03-17T10:41:09.923Z,43.67
2023-03-17T10:43:19.286Z,43.65
2023-03-17T10:45:28.841Z,43.61
2023-03-17T10:47:34.576Z,43.24
2023-03-17T10:49:41.408Z,43.71
2023-03-17T10:51:47.932Z,43.26
2023-03-17T10:53:54.919Z,43.42
2023-03-17T10:56:01.159Z,43.34
2023-03-17T10:58:07.423Z,43.13
2023-03-17T11:00:18.231Z,42.71
2023-03-17T11:02:27.333Z,42.12
2023-03-17T11:04:33.608Z,41.66
2023-03-17T11:06:42.200Z,41.96
2023-03-17T11:08:49.647Z,41.98
2023-03-17T11:10:58.133Z,41.58
2023-03-17T11:13:02.938Z,41.89
2023-03-17T11:15:08.735Z,41.72
2023-03-17T11:17:18.807Z,41.52
2023-03-17T11:19:29.950Z,41.97
2023-03-17T11:21:46.919Z,41.58
2023-03-17T11:23:53.534Z,41.06
2023-03-17T11:26:08.813Z,41.91
2023-03-17T11:28:20.830Z,41.81
2023-03-17T11:30:32.955Z,41.50
2023-03-17T11:32:43.665Z,41.23
2023-03-17T11:34:57.912Z,41.49
2023-03-17T11:37:10.786Z,40.96
2023-03-17T11:39:17.331Z,40.57
2023-03-17T11:41:36.309Z,40.32
2023-03-17T11:43:52.951Z,40.35
2023-03-17T11:46:04.963Z,40.11
2023-03-17T11:48:18.209Z,40.22
2023-03-17T11:50:31.056Z,39.77
2023-03-17T11:52:46.414Z,39.27
2023-03-17T11:55:00.074Z,39.15
2023-03-17T11:57:10.580Z,38.97
2023-03-17T11:59:31.781Z,38.46
2023-03-17T12:01:45.844Z,38.01
2023-03-17T12:03:54.443Z,37.85
2023-03-17T12:06:01.936Z,37.77
2023-03-17T12:08:12.551Z,37.38
2023-03-17T12:10:23.695Z,37.53
2023-03-17T12:12:34.828Z,36.96
2023-03-17T12:14:45.260Z,36.77
2023-03-17T12:16:52.540Z,36.96
2023-03-17T12:19:03.408Z,36.89
2023-03-17T12:21:14.685Z,36.63
2023-03-17T12:23:29.967Z,36.21
2023-03-17T12:25:35.786Z,36.34
2023-03-17T12:27:45.584Z,36.25
2023-03-17T12:29:54.203Z,35.55
2023-03-17T12:32:07.338Z,35.80
2023-03-17T12:34:18.525Z,35.87
2023-03-17T12:36:23.091Z,35.68
2023-03-17T12:38:36.411Z,35.91
2023-03-17T12:40:55.794Z,35.73
2023-03-17T12:43:20.333Z,35.82
2023-03-17T12:45:51.529Z,34.98
2023-03-17T12:48:26.156Z,35.15
2023-03-17T12:50:45.753Z,34.76
2023-03-17T12:53:11.317Z,34.61
2023-03-17T12:55:16.777Z,34.50
2023-03-17T12:57:22.712Z,35.02
2023-03-17T12:59:27.698Z,34.52
2023-03-17T13:01:34.045Z,34.78
2023-03-17T13:03:38.870Z,34.37
2023-03-17T13:05:48.125Z,34.72
2023-03-17T13:07:55.015Z,34.43
2023-03-17T13:10:20.370Z,34.78
2023-03-17T13:12:57.881Z,34.27
2023-03-17T13:15:02.751Z,33.66
2023-03-17T13:17:28.568Z,33.06
2023-03-17T13:19:34.112Z,32.67
2023-03-17T13:21:38.775Z,31.89
2023-03-17T13:23:45.205Z,32.02
2023-03-17T13:25:53.950Z,31.59
2023-03-17T13:28:18.219Z,31.34
2023-03-17T13:30:57.064Z,31.45
2023-03-17T13:33:23.763Z,31.32
2023-03-17T13:35:42.774Z,31.80
2023-03-17T13:38:08.430Z,31.72
2023-03-17T13:40:19.268Z,31.98
2023-03-17T13:42:50.905Z,32.22
2023-03-17T13:45:21.943Z,32.54
2023-03-17T13:47:35.832Z,32.32
2023-03-17T13:49:39.117Z,32.33
2023-03-17T13:51:52.928Z,32.75
2023-03-17T13:54:10.443Z,33.08
2023-03-17T13:56:19.865Z,32.61
2023-03-17T13:58:34.485Z,32.72
2023-03-17T14:00:40.163Z,32.33
2023-03-17T14:02:45.941Z,32.75
2023-03-17T14:04:57.604Z,32.06
2023-03-17T14:07:06.980Z,31.73
2023-03-17T14:09:26.769Z,31.42
2023-03-17T14:11:34.212Z,31.14
2023-03-17T14:13:44.439Z,31.05
2023-03-17T14:15:56.626Z,31.26
2023-03-17T14:18:04.693Z,31.78
2023-03-17T14:20:24.167Z,31.68
2023-03-17T14:22:28.192Z,31.59
2023-03-17T14:24:33.279Z,31.64
2023-03-17T14:26:36.784Z,31.64
2023-03-17T14:28:40.760Z,31.79
2023-03-17T14:30:52.901Z,31.65
2023-03-17T14:33:04.743Z,31.68
2023-03-17T14:35:14.622Z,31.75
2023-03-17T14:37:18.003Z,31.96
2023-03-17T14:39:26.440Z,32.48
2023-03-17T14:41:32.831Z,32.65
2023-03-17T14:43:37.879Z,33.00
2023-03-17T14:45:51.783Z,33.10
2023-03-17T14:47:55.439Z,33.18
2023-03-17T14:50:03.286Z,33.20
2023-03-17T14:52:07.411Z,33.10
2023-03-17T14:54:15.385Z,33.06
2023-03-17T14:56:23.884Z,33.29
2023-03-17T14:58:31.846Z,33.23
2023-03-17T15:00:38.134Z,33.33
2023-03-17T15:02:44.232Z,33.01
2023-03-17T15:04:56.964Z,32.95
2023-03-17T15:07:05.256Z,33.27
2023-03-17T15:09:18.997Z,32.91
2023-03-17T15:11:25.920Z,32.72
2023-03-17T15:13:34.116Z,32.83
2023-03-17T15:15:41.611Z,32.79
2023-03-17T15:17:45.030Z,32.72
2023-03-17T15:19:50.675Z,33.09
2023-03-17T15:21:57.080Z,32.80
2023-03-17T15:24:06.262Z,33.36
2023-03-17T15:26:23.574Z,33.25
2023-03-17T15:28:30.385Z,33.72
2023-03-17T15:30:46.716Z,33.72
2023-03-17T15:32:59.649Z,34.01
2023-03-17T15:35:03.417Z,34.08
2023-03-17T15:37:15.912Z,34.20
2023-03-17T15:39:23.505Z,34.31
2023-03-17T15:41:26.938Z,34.51
2023-03-17T15:43:30.362Z,34.58
2023-03-17T15:45:34.021Z,34.99
2023-03-17T15:47:40.104Z,35.32
2023-03-17T15:49:44.012Z,35.40
2023-03-17T15:51:47.382Z,35.30
2023-03-17T15:53:51.154Z,35.66
2023-03-17T15:55:56.577Z,35.92
2023-03-17T15:58:01.036Z,36.00
2023-03-17T16:00:04.610Z,35.69
2023-03-17T16:02:29.108Z,36.17
2023-03-17T16:04:32.756Z,36.25
2023-03-17T16:06:36.836Z,36.53
2023-03-17T16:08:40.090Z,36.37
2023-03-17T16:10:43.391Z,36.83
2023-03-17T16:12:48.412Z,37.10
2023-03-17T16:14:54.230Z,37.25
2023-03-17T16:16:58.181Z,37.42
2023-03-17T16:19:01.837Z,37.52
2023-03-17T16:21:06.213Z,37.63
2023-03-17T16:23:15.428Z,37.85
2023-03-17T16:25:21.843Z,37.92
2023-03-17T16:27:25.161Z,38.48
2023-03-17T16:29:31.113Z,38.68
2023-03-17T16:31:34.555Z,38.65
2023-03-17T16:33:41.078Z,38.91
2023-03-17T16:35:44.861Z,38.96
2023-03-17T16:37:49.239Z,39.16
2023-03-17T16:39:52.471Z,39.22
2023-03-17T16:41:55.789Z,39.31
2023-03-17T16:44:01.488Z,39.30
2023-03-17T16:46:07.847Z,39.55
2023-03-17T16:48:14.738Z,39.63
2023-03-17T16:50:21.347Z,39.85
2023-03-17T16:52:24.632Z,40.26
2023-03-17T16:54:31.330Z,40.35
2023-03-17T16:56:34.820Z,40.72
2023-03-17T16:58:38.220Z,40.74
2023-03-17T17:00:41.522Z,41.05
2023-03-17T17:02:49.227Z,41.32
2023-03-17T17:04:54.622Z,41.33
2023-03-17T17:06:58.156Z,41.70
2023-03-17T17:09:01.374Z,41.88
2023-03-17T17:11:06.497Z,42.00
2023-03-17T17:13:11.069Z,41.99
2023-03-17T17:15:16.725Z,42.34
2023-03-17T17:17:20.037Z,42.38
2023-03-17T17:19:25.384Z,42.69
2023-03-17T17:21:29.434Z,42.97
2023-03-17T17:23:35.558Z,43.31
2023-03-17T17:25:40.285Z,43.41
2023-03-17T17:27:48.007Z,43.70
2023-03-17T17:29:51.395Z,44.07
2023-03-17T17:31:54.953Z,44.38
2023-03-17T17:33:58.523Z,44.40
2023-03-17T17:36:04.097Z,44.24
2023-03-17T17:38:16.664Z,44.46
2023-03-17T17:40:24.487Z,44.56
2023-03-17T17:42:28.031Z,44.85
2023-03-17T17:44:32.388Z,44.98
2023-03-17T17:46:35.947Z,45.28
2023-03-17T17:48:39.262Z,45.05
2023-03-17T17:50:43.555Z,45.47
2023-03-17T17:52:48.356Z,45.57
2023-03-17T17:54:51.773Z,45.62
2023-03-17T17:56:55.159Z,45.76
2023-03-17T17:58:59.336Z,45.88
2023-03-17T18:01:04.824Z,46.00
2023-03-17T18:03:08.447Z,46.18
2023-03-17T18:05:12.783Z,46.35
2023-03-17T18:07:16.526Z,46.55
2023-03-17T18:09:21.617Z,46.60
2023-03-17T18:11:24.912Z,46.90
2023-03-17T18:13:28.286Z,46.98
2023-03-17T18:15:31.626Z,47.18
2023-03-17T18:17:35.317Z,47.37
2023-03-17T18:19:38.614Z,47.35
2023-03-17T18:21:42.136Z,47.64
2023-03-17T18:23:47.244Z,47.60
2023-03-17T18:25:52.045Z,47.72
2023-03-17T18:27:56.329Z,47.76
2023-03-17T18:30:00.859Z,47.86
2023-03-17T18:32:06.094Z,47.97
2023-03-17T18:34:14.990Z,48.27
2023-03-17T18:36:18.658Z,48.31
2023-03-17T18:38:22.054Z,48.39
2023-03-17T18:40:26.175Z,48.45
2023-03-17T18:42:30.782Z,48.48
2023-03-17T18:44:34.348Z,48.86
2023-03-17T18:46:38.129Z,48.93
2023-03-17T18:48:41.856Z,48.66
2023-03-17T18:50:45.088Z,48.70
2023-03-17T18:52:48.713Z,48.79
2023-03-17T18:54:52.126Z,48.73
2023-03-17T18:56:55.360Z,48.81
2023-03-17T18:59:01.114Z,48.83
2023-03-17T19:01:05.566Z,48.88
2023-03-17T19:03:08.944Z,49.01
2023-03-17T19:05:12.847Z,49.00
2023-03-17T19:07:16.446Z,48.95
2023-03-17T19:09:20.236Z,49.44
2023-03-17T19:11:24.458Z,49.65
2023-03-17T19:13:28.062Z,49.86
2023-03-17T19:15:32.696Z,49.96
2023-03-17T19:17:36.001Z,49.95
2023-03-17T19:19:40.662Z,50.04
2023-03-17T19:21:43.929Z,50.18
2023-03-17T19:23:47.452Z,50.37
2023-03-17T19:25:51.327Z,50.25
2023-03-17T19:27:54.556Z,50.15
2023-03-17T19:29:57.815Z,50.12
2023-03-17T19:32:02.466Z,50.29
2023-03-17T19:34:06.652Z,50.14
2023-03-17T19:36:12.746Z,50.45
2023-03-17T19:38:17.110Z,50.71
2023-03-17T19:40:20.545Z,50.81
2023-03-17T19:42:23.798Z,50.95
2023-03-17T19:44:27.449Z,51.27
2023-03-17T19:46:30.938Z,51.24
2023-03-17T19:48:36.461Z,51.15
2023-03-17T19:50:40.757Z,51.10
2023-03-17T19:52:43.975Z,51.14
2023-03-17T19:54:47.464Z,51.38
2023-03-17T19:56:51.098Z,51.37
2023-03-17T19:58:54.356Z,51.63
2023-03-17T20:00:57.661Z,51.62
2023-03-17T20:03:01.280Z,51.67
2023-03-17T20:05:08.454Z,51.88
2023-03-17T20:07:11.905Z,52.07
2023-03-17T20:09:15.157Z,52.43
2023-03-17T20:11:19.412Z,52.60
2023-03-17T20:13:22.735Z,52.74
2023-03-17T20:15:25.966Z,53.16
2023-03-17T20:17:29.159Z,53.20
2023-03-17T20:19:32.588Z,53.33
2023-03-17T20:21:37.792Z,53.55
2023-03-17T20:23:41.051Z,53.70
2023-03-17T20:25:44.930Z,53.98
2023-03-17T20:27:48.338Z,54.02
2023-03-17T20:29:51.664Z,54.13
2023-03-17T20:31:55.298Z,54.07
2023-03-17T20:33:58.938Z,54.18
2023-03-17T20:36:03.249Z,54.59
2023-03-17T20:38:08.335Z,54.57
2023-03-17T20:40:12.982Z,54.66
2023-03-17T20:42:16.636Z,54.67
2023-03-17T20:44:21.312Z,54.83
2023-03-17T20:46:26.566Z,55.08
2023-03-17T20:48:30.172Z,54.97
2023-03-17T20:50:34.510Z,55.27
2023-03-17T20:52:38.242Z,55.42
2023-03-17T20:54:43.661Z,55.70
2023-03-17T20:56:48.798Z,55.73
2023-03-17T20:58:53.228Z,55.60
2023-03-17T21:00:58.506Z,55.71
2023-03-17T21:03:02.249Z,55.83
2023-03-17T21:05:07.481Z,55.94
2023-03-17T21:07:10.667Z,56.03
2023-03-17T21:09:14.154Z,56.24
2023-03-17T21:11:20.924Z,56.24
2023-03-17T21:13:25.301Z,56.30
2023-03-17T21:15:31.855Z,56.36
2023-03-17T21:17:35.464Z,56.47
2023-03-17T21:19:39.374Z,56.65
2023-03-17T21:21:43.181Z,56.62
2023-03-17T21:23:47.081Z,56.60
2023-03-17T21:25:56.081Z,56.60
2023-03-17T21:28:01.590Z,56.58
2023-03-17T21:30:08.873Z,56.59
2023-03-17T21:32:12.574Z,56.72
2023-03-17T21:34:16.088Z,56.75
2023-03-17T21:36:20.886Z,56.76
2023-03-17T21:38:24.291Z,56.92
2023-03-17T21:40:27.570Z,57.03
2023-03-17T21:42:30.764Z,56.99
2023-03-17T21:44:35.864Z,57.05
2023-03-17T21:46:39.208Z,57.13
2023-03-17T21:48:42.477Z,57.20
2023-03-17T21:50:46.846Z,57.24
2023-03-17T21:52:50.390Z,57.35
2023-03-17T21:54:54.885Z,57.24
2023-03-17T21:56:59.082Z,57.35
2023-03-17T21:59:03.077Z,57.38
2023-03-17T22:01:09.200Z,57.35
2023-03-17T22:03:12.626Z,57.36
2023-03-17T22:05:15.922Z,57.43
2023-03-17T22:07:19.524Z,57.41
2023-03-17T22:09:22.772Z,57.45
2023-03-17T22:11:26.050Z,57.60
2023-03-17T22:13:29.272Z,57.63
2023-03-17T22:15:32.526Z,57.66
2023-03-17T22:17:38.062Z,57.72
2023-03-17T22:19:42.451Z,57.96
2023-03-17T22:21:45.756Z,57.96
2023-03-17T22:23:49.014Z,58.03
2023-03-17T22:25:52.396Z,58.08
2023-03-17T22:27:56.245Z,57.95
2023-03-17T22:29:59.739Z,58.07
2023-03-17T22:32:03.117Z,58.03
2023-03-17T22:34:09.952Z,58.15
2023-03-17T22:36:13.384Z,58.10
2023-03-17T22:38:17.931Z,58.14
2023-03-17T22:40:21.485Z,58.08
2023-03-17T22:42:24.678Z,58.04
2023-03-17T22:44:28.133Z,58.09
2023-03-17T22:46:32.180Z,58.01
2023-03-17T22:48:36.857Z,57.95
2023-03-17T22:50:43.345Z,57.79
2023-03-17T22:52:46.570Z,57.97
2023-03-17T22:54:49.819Z,57.97
2023-03-17T22:56:53.433Z,57.93
2023-03-17T22:58:56.667Z,57.80
2023-03-17T23:00:59.966Z,57.87
2023-03-17T23:03:03.699Z,58.04
2023-03-17T23:05:07.592Z,58.22
2023-03-17T23:07:12.286Z,58.13
2023-03-17T23:09:15.701Z,58.12
2023-03-17T23:11:22.247Z,58.20
2023-03-17T23:13:25.597Z,58.21
2023-03-17T23:15:28.963Z,58.26
2023-03-17T23:17:32.311Z,58.16
2023-03-17T23:19:36.867Z,58.23
2023-03-17T23:21:40.643Z,58.35
2023-03-17T23:23:45.330Z,58.38
2023-03-17T23:25:48.824Z,58.54
2023-03-17T23:27:52.476Z,58.68
2023-03-17T23:29:55.713Z,58.80
2023-03-17T23:32:00.416Z,58.87
2023-03-17T23:34:04.500Z,58.88
2023-03-17T23:36:09.191Z,58.95
2023-03-17T23:38:13.037Z,58.81
2023-03-17T23:40:18.778Z,59.18
2023-03-17T23:42:22.291Z,59.06
2023-03-17T23:44:25.640Z,59.18
2023-03-17T23:46:29.041Z,59.32
2023-03-17T23:48:32.775Z,59.37
2023-03-17T23:50:36.342Z,59.46
2023-03-17T23:52:40.496Z,59.54
2023-03-17T23:54:44.073Z,59.65
2023-03-17T23:56:48.638Z,59.66
2023-03-17T23:58:52.156Z,59.75
